Time;durP1;ratioP1;P1;durP2;ratioP2;P2;SDS_P1;SDS_P2;PMS_P1;PMS_P2;Temp;Humidity;BMP_temperature;BMP_pressure;BME280_temperature;BME280_humidity;BME280_pressure;Samples;Min_cycle;Max_cycle;Signal;HPM_P1;HPM_P2
2023/01/15 00:00:49;;;;;;;;;;;20.80;38.10;;;;;;5073895;28;19971;-63
2023/01/15 00:03:17;;;;;;;;;;;20.80;38.10;;;;;;5073436;28;19920;-63
2023/01/15 00:05:44;;;;;;;;;;;20.80;38.10;;;;;;5074199;28;19920;-64
2023/01/15 00:08:11;;;;;;;;;;;20.80;38.10;;;;;;5074472;28;20331;-63
2023/01/15 00:10:37;;;;;;;;;;;20.80;38.10;;;;;;5073049;28;19920;-63
2023/01/15 00:13:04;;;;;;;;;;;20.80;38.10;;;;;;5073394;28;19921;-63
2023/01/15 00:15:31;;;;;;;;;;;20.80;38.10;;;;;;5073287;28;20018;-63
2023/01/15 00:17:58;;;;;;;;;;;20.80;38.10;;;;;;5073921;28;19928;-63
2023/01/15 00:20:25;;;;;;;;;;;20.80;38.10;;;;;;5073396;28;19920;-63
2023/01/15 00:22:52;;;;;;;;;;;20.80;38.00;;;;;;5073686;28;20284;-63
2023/01/15 00:28:06;;;;;;;;;;;20.80;38.00;;;;;;5072822;28;20368;-63
2023/01/15 00:30:33;;;;;;;;;;;20.80;38.00;;;;;;5073511;28;19920;-63
2023/01/15 00:33:00;;;;;;;;;;;20.80;38.00;;;;;;5073681;28;19927;-63
2023/01/15 00:35:27;;;;;;;;;;;20.80;38.00;;;;;;5073133;28;20011;-63
2023/01/15 00:37:53;;;;;;;;;;;20.70;38.00;;;;;;5073309;28;19926;-63
2023/01/15 00:40:21;;;;;;;;;;;20.70;38.00;;;;;;5073629;28;20015;-63
2023/01/15 00:42:48;;;;;;;;;;;20.80;38.10;;;;;;5072903;28;19926;-63
2023/01/15 00:45:20;;;;;;;;;;;20.80;38.10;;;;;;5072388;28;19946;-63
2023/01/15 00:47:49;;;;;;;;;;;20.70;38.00;;;;;;5072778;28;20319;-63
2023/01/15 00:50:16;;;;;;;;;;;20.70;38.10;;;;;;5072619;28;19921;-63
2023/01/15 00:52:43;;;;;;;;;;;20.70;38.10;;;;;;5073638;28;19927;-63
2023/01/15 00:55:10;;;;;;;;;;;20.70;38.10;;;;;;5073620;28;19942;-63
2023/01/15 00:57:37;;;;;;;;;;;20.70;38.10;;;;;;5072558;28;19920;-63
2023/01/15 01:00:04;;;;;;;;;;;20.70;38.10;;;;;;5072511;28;19995;-63
2023/01/15 01:02:31;;;;;;;;;;;20.70;38.10;;;;;;5072782;28;19967;-63
2023/01/15 01:04:58;;;;;;;;;;;20.70;38.10;;;;;;5076024;28;20295;-63
2023/01/15 01:07:25;;;;;;;;;;;20.70;38.00;;;;;;5077478;28;19926;-63
2023/01/15 01:09:52;;;;;;;;;;;20.70;38.00;;;;;;5076972;28;19970;-63
2023/01/15 01:12:20;;;;;;;;;;;20.70;38.10;;;;;;5077132;28;19920;-63
2023/01/15 01:14:47;;;;;;;;;;;20.70;38.00;;;;;;5076468;28;19927;-63
2023/01/15 01:17:13;;;;;;;;;;;20.70;38.10;;;;;;5076598;28;20376;-63
2023/01/15 01:19:40;;;;;;;;;;;20.70;38.10;;;;;;5076509;28;19943;-63
2023/01/15 01:22:07;;;;;;;;;;;20.70;38.10;;;;;;5076667;28;20007;-63
2023/01/15 01:24:34;;;;;;;;;;;20.70;38.00;;;;;;5075975;28;19928;-63
2023/01/15 01:27:01;;;;;;;;;;;20.70;38.10;;;;;;5077060;28;19968;-63
2023/01/15 01:29:28;;;;;;;;;;;20.70;38.10;;;;;;5076250;28;19924;-63
2023/01/15 01:31:55;;;;;;;;;;;20.70;38.10;;;;;;5077351;28;19920;-65
2023/01/15 01:34:22;;;;;;;;;;;20.70;38.10;;;;;;5076492;28;19927;-63
2023/01/15 01:36:49;;;;;;;;;;;20.70;38.10;;;;;;5077040;28;20035;-63
2023/01/15 01:39:17;;;;;;;;;;;20.70;38.10;;;;;;5076141;28;19999;-63
2023/01/15 01:41:45;;;;;;;;;;;20.70;38.20;;;;;;5076986;28;19921;-63
2023/01/15 01:44:31;;;;;;;;;;;20.70;38.10;;;;;;5058028;28;19920;-63
2023/01/15 01:47:00;;;;;;;;;;;20.70;38.10;;;;;;5075873;28;19920;-64
2023/01/15 01:49:27;;;;;;;;;;;20.70;38.10;;;;;;5075968;28;19924;-63
2023/01/15 01:51:56;;;;;;;;;;;20.60;38.00;;;;;;5076133;28;19920;-62
2023/01/15 01:54:23;;;;;;;;;;;20.70;38.10;;;;;;5076765;28;19921;-63
2023/01/15 01:56:51;;;;;;;;;;;20.70;38.10;;;;;;5075818;28;20019;-62
2023/01/15 01:59:19;;;;;;;;;;;20.60;38.00;;;;;;5076140;28;20271;-63
2023/01/15 02:01:47;;;;;;;;;;;20.60;38.00;;;;;;5076638;28;19926;-63
2023/01/15 02:04:14;;;;;;;;;;;20.60;38.00;;;;;;5076269;28;19955;-63
2023/01/15 02:06:42;;;;;;;;;;;20.60;38.00;;;;;;5076143;28;19942;-63
2023/01/15 02:09:09;;;;;;;;;;;20.60;38.20;;;;;;5076500;28;19965;-64
2023/01/15 02:11:36;;;;;;;;;;;20.70;38.10;;;;;;5076463;28;20015;-63
2023/01/15 02:14:09;;;;;;;;;;;20.60;38.00;;;;;;5075743;28;20011;-64
2023/01/15 02:16:39;;;;;;;;;;;20.70;38.10;;;;;;5075574;28;19942;-63
2023/01/15 02:19:26;;;;;;;;;;;20.60;38.00;;;;;;5058604;28;19927;-64
2023/01/15 02:22:03;;;;;;;;;;;20.70;38.10;;;;;;5076476;28;20070;-63
2023/01/15 02:24:38;;;;;;;;;;;20.70;38.10;;;;;;5074374;28;19934;-64
2023/01/15 02:27:07;;;;;;;;;;;20.70;38.60;;;;;;5075776;28;19920;-64
2023/01/15 02:29:54;;;;;;;;;;;20.70;38.10;;;;;;5075031;28;19928;-64
2023/01/15 02:32:30;;;;;;;;;;;20.70;38.00;;;;;;5075200;28;19920;-63
2023/01/15 02:35:00;;;;;;;;;;;20.70;38.00;;;;;;5057011;28;20018;-63
2023/01/15 02:37:29;;;;;;;;;;;20.70;38.00;;;;;;5075791;28;19920;-63
2023/01/15 02:39:58;;;;;;;;;;;20.60;38.00;;;;;;5074037;28;19967;-63
2023/01/15 02:42:26;;;;;;;;;;;20.60;38.00;;;;;;5075614;28;20283;-64
2023/01/15 02:44:54;;;;;;;;;;;20.60;38.00;;;;;;5075451;28;19931;-63
2023/01/15 02:47:23;;;;;;;;;;;20.60;38.00;;;;;;5075029;28;19927;-64
2023/01/15 02:49:52;;;;;;;;;;;20.60;38.00;;;;;;5075119;28;19960;-63
2023/01/15 02:52:23;;;;;;;;;;;20.60;38.00;;;;;;5075230;28;20288;-64
2023/01/15 02:54:53;;;;;;;;;;;20.60;38.00;;;;;;5075124;28;19927;-63
2023/01/15 02:57:20;;;;;;;;;;;20.60;38.00;;;;;;5074948;28;20023;-63
2023/01/15 02:59:49;;;;;;;;;;;20.60;38.00;;;;;;5074859;28;20364;-63
2023/01/15 03:02:19;;;;;;;;;;;20.60;37.90;;;;;;5057665;28;19928;-63
2023/01/15 03:04:49;;;;;;;;;;;20.60;38.00;;;;;;5055135;28;19927;-63
2023/01/15 03:07:29;;;;;;;;;;;20.60;37.90;;;;;;5055495;28;19921;-63
2023/01/15 03:09:57;;;;;;;;;;;20.60;38.00;;;;;;5054664;28;19975;-63
2023/01/15 03:12:33;;;;;;;;;;;20.60;38.00;;;;;;5054447;28;19932;-63
2023/01/15 03:15:05;;;;;;;;;;;20.60;37.90;;;;;;5054383;28;19920;-63
2023/01/15 03:17:38;;;;;;;;;;;20.60;37.90;;;;;;5053880;28;19930;-63
2023/01/15 03:20:12;;;;;;;;;;;20.60;38.00;;;;;;5054712;28;20011;-63
2023/01/15 03:22:42;;;;;;;;;;;20.60;37.90;;;;;;5054546;28;19920;-63
2023/01/15 03:25:18;;;;;;;;;;;20.60;37.90;;;;;;5054179;28;20256;-63
2023/01/15 03:27:44;;;;;;;;;;;20.60;37.90;;;;;;5053749;28;20292;-63
2023/01/15 03:30:13;;;;;;;;;;;20.60;37.90;;;;;;5054005;28;19927;-63
2023/01/15 03:32:40;;;;;;;;;;;20.50;37.90;;;;;;5054758;28;19924;-63
2023/01/15 03:35:27;;;;;;;;;;;20.60;37.90;;;;;;5054493;28;20007;-63
2023/01/15 03:37:54;;;;;;;;;;;20.60;37.90;;;;;;5054175;28;19921;-63
2023/01/15 03:40:21;;;;;;;;;;;20.60;37.90;;;;;;5053995;28;20289;-63
2023/01/15 03:43:39;;;;;;;;;;;20.50;37.90;;;;;;5054461;28;19967;-63
2023/01/15 03:45:44;;;;;;;;;;;20.50;37.90;;;;;;5053495;28;19924;-63
2023/01/15 03:48:19;;;;;;;;;;;20.50;37.90;;;;;;5053585;28;20253;-63
2023/01/15 03:50:51;;;;;;;;;;;20.50;37.90;;;;;;5053861;28;19920;-63
2023/01/15 03:53:25;;;;;;;;;;;20.50;37.90;;;;;;5054271;28;20361;-64
2023/01/15 03:55:58;;;;;;;;;;;20.50;37.90;;;;;;5054195;28;19920;-63
2023/01/15 03:58:28;;;;;;;;;;;20.50;37.90;;;;;;5054177;28;19927;-64
2023/01/15 04:00:58;;;;;;;;;;;20.50;37.90;;;;;;5054269;28;19920;-63
2023/01/15 04:03:26;;;;;;;;;;;20.50;37.90;;;;;;5053669;28;20015;-64
2023/01/15 04:05:55;;;;;;;;;;;20.50;37.90;;;;;;5053970;28;19924;-63
2023/01/15 04:08:23;;;;;;;;;;;20.50;37.90;;;;;;5053787;28;19921;-64
2023/01/15 04:10:51;;;;;;;;;;;20.50;37.90;;;;;;5054067;28;20253;-63
2023/01/15 04:13:18;;;;;;;;;;;20.50;37.90;;;;;;5053603;28;19927;-63
2023/01/15 04:15:45;;;;;;;;;;;20.50;37.90;;;;;;5054705;28;20257;-63
2023/01/15 04:18:12;;;;;;;;;;;20.50;37.90;;;;;;5053763;28;19921;-63
2023/01/15 04:20:39;;;;;;;;;;;20.50;37.90;;;;;;5053123;28;20377;-63
2023/01/15 04:23:06;;;;;;;;;;;20.50;37.90;;;;;;5053129;28;19927;-63
2023/01/15 04:25:34;;;;;;;;;;;20.50;37.90;;;;;;5053147;28;19970;-64
2023/01/15 04:28:01;;;;;;;;;;;20.50;37.90;;;;;;5053318;28;19921;-63
2023/01/15 04:30:28;;;;;;;;;;;20.50;37.90;;;;;;5053140;28;19932;-64
2023/01/15 04:32:54;;;;;;;;;;;20.50;37.90;;;;;;5053487;28;19920;-63
2023/01/15 04:35:21;;;;;;;;;;;20.50;37.90;;;;;;5063727;28;20356;-63
2023/01/15 04:37:48;;;;;;;;;;;20.60;37.90;;;;;;5073155;28;19920;-63
2023/01/15 04:45:49;;;;;;;;;;;20.60;37.90;;;;;;5094047;28;19920;-63
2023/01/15 04:48:16;;;;;;;;;;;20.60;37.90;;;;;;5093422;28;19920;-63
2023/01/15 04:50:43;;;;;;;;;;;20.50;37.80;;;;;;5092718;28;20386;-63
2023/01/15 04:53:10;;;;;;;;;;;20.50;37.80;;;;;;5093268;28;19920;-63
2023/01/15 04:55:37;;;;;;;;;;;20.50;37.80;;;;;;5093221;28;19920;-64
2023/01/15 04:58:04;;;;;;;;;;;20.50;37.80;;;;;;5093382;28;19931;-63
2023/01/15 05:00:31;;;;;;;;;;;20.50;37.80;;;;;;5093141;28;20235;-64
2023/01/15 05:02:57;;;;;;;;;;;20.50;37.80;;;;;;5093492;28;19920;-63
2023/01/15 05:05:24;;;;;;;;;;;20.50;37.80;;;;;;5093140;28;19938;-63
2023/01/15 05:07:52;;;;;;;;;;;20.50;37.80;;;;;;5093341;28;19942;-63
2023/01/15 05:10:19;;;;;;;;;;;20.50;37.90;;;;;;5092232;28;19920;-63
2023/01/15 05:12:46;;;;;;;;;;;20.50;37.80;;;;;;5092943;28;19954;-63
2023/01/15 05:15:13;;;;;;;;;;;20.50;37.80;;;;;;5090566;28;19920;-63
2023/01/15 05:17:40;;;;;;;;;;;20.50;37.90;;;;;;5072948;28;20352;-63
2023/01/15 05:20:07;;;;;;;;;;;20.50;37.80;;;;;;5072415;28;19920;-63
2023/01/15 05:22:34;;;;;;;;;;;20.50;37.80;;;;;;5072904;28;19924;-64
2023/01/15 05:25:01;;;;;;;;;;;20.50;37.80;;;;;;5072514;28;19927;-63
2023/01/15 05:27:29;;;;;;;;;;;20.50;37.80;;;;;;5073127;28;19967;-63
2023/01/15 05:29:56;;;;;;;;;;;20.40;37.80;;;;;;5072536;28;19920;-63
2023/01/15 05:32:23;;;;;;;;;;;20.50;37.80;;;;;;5072264;28;19920;-63
2023/01/15 05:34:50;;;;;;;;;;;20.50;37.80;;;;;;5072214;28;20010;-63
2023/01/15 05:37:17;;;;;;;;;;;20.50;37.80;;;;;;5072302;28;20375;-63
2023/01/15 05:39:44;;;;;;;;;;;20.50;37.60;;;;;;5072570;28;20210;-63
2023/01/15 05:42:11;;;;;;;;;;;20.40;37.40;;;;;;5072199;28;20037;-63
2023/01/15 05:44:38;;;;;;;;;;;20.40;37.30;;;;;;5072282;28;20494;-64
2023/01/15 05:47:06;;;;;;;;;;;20.40;37.30;;;;;;5072897;28;19920;-63
2023/01/15 05:49:33;;;;;;;;;;;20.40;37.30;;;;;;5072016;28;19920;-63
2023/01/15 05:52:01;;;;;;;;;;;20.40;37.30;;;;;;5074829;28;19931;-63
2023/01/15 05:54:29;;;;;;;;;;;20.40;37.20;;;;;;5075780;28;19920;-63
2023/01/15 05:56:56;;;;;;;;;;;20.40;37.20;;;;;;5076741;28;19921;-63
2023/01/15 05:59:24;;;;;;;;;;;20.40;37.20;;;;;;5076032;28;20291;-62
2023/01/15 06:01:51;;;;;;;;;;;20.40;37.10;;;;;;5076414;28;19920;-63
2023/01/15 06:04:20;;;;;;;;;;;20.40;37.00;;;;;;5075845;28;19928;-63
2023/01/15 06:06:47;;;;;;;;;;;20.50;37.10;;;;;;5075195;28;19921;-63
2023/01/15 06:09:14;;;;;;;;;;;20.50;37.10;;;;;;5075806;28;19931;-63
2023/01/15 06:11:41;;;;;;;;;;;20.50;37.10;;;;;;5076211;28;19920;-64
2023/01/15 06:14:09;;;;;;;;;;;20.50;37.10;;;;;;5075968;28;19943;-63
2023/01/15 06:16:36;;;;;;;;;;;20.50;36.90;;;;;;5074722;28;19920;-63
2023/01/15 06:19:06;;;;;;;;;;;20.50;36.90;;;;;;5075661;28;19926;-63
2023/01/15 06:21:34;;;;;;;;;;;20.60;36.90;;;;;;5075899;28;19990;-63
2023/01/15 06:24:01;;;;;;;;;;;20.60;36.80;;;;;;5075896;28;19928;-61
2023/01/15 06:26:28;;;;;;;;;;;20.60;36.70;;;;;;5076260;28;19955;-62
2023/01/15 06:28:55;;;;;;;;;;;20.60;36.70;;;;;;5075859;28;20283;-62
2023/01/15 06:31:22;;;;;;;;;;;20.60;36.60;;;;;;5075846;28;19974;-62
2023/01/15 06:33:49;;;;;;;;;;;20.60;36.60;;;;;;5075452;28;19920;-62
2023/01/15 06:36:20;;;;;;;;;;;20.60;36.50;;;;;;5075653;28;19920;-62
2023/01/15 06:38:47;;;;;;;;;;;20.70;36.50;;;;;;5057445;28;20364;-63
2023/01/15 06:49:43;;;;;;;;;;;20.80;36.20;;;;;;5074488;28;19976;-62
2023/01/15 06:52:10;;;;;;;;;;;20.80;36.10;;;;;;5074062;28;19921;-63
2023/01/15 06:54:38;;;;;;;;;;;20.90;36.10;;;;;;5074977;28;19974;-62
2023/01/15 06:57:05;;;;;;;;;;;20.90;36.00;;;;;;5075337;28;20323;-62
2023/01/15 06:59:32;;;;;;;;;;;20.90;35.90;;;;;;5074242;28;19927;-63
2023/01/15 07:01:59;;;;;;;;;;;20.90;35.80;;;;;;5075138;28;19920;-63
2023/01/15 07:04:26;;;;;;;;;;;20.90;35.70;;;;;;5074057;28;19921;-62
2023/01/15 07:06:53;;;;;;;;;;;21.00;35.70;;;;;;5074675;28;19920;-63
2023/01/15 07:09:20;;;;;;;;;;;21.00;35.60;;;;;;5074736;28;20355;-62
2023/01/15 07:11:50;;;;;;;;;;;21.00;35.50;;;;;;5074512;28;19920;-62
2023/01/15 07:14:18;;;;;;;;;;;21.10;35.50;;;;;;5074153;28;19927;-62
2023/01/15 07:16:45;;;;;;;;;;;21.10;35.40;;;;;;5074688;28;19924;-62
2023/01/15 07:19:12;;;;;;;;;;;21.10;35.30;;;;;;5074398;28;20289;-62
2023/01/15 07:21:39;;;;;;;;;;;21.20;35.30;;;;;;5074728;28;19920;-62
2023/01/15 07:24:06;;;;;;;;;;;21.20;35.20;;;;;;5074258;28;19958;-63
2023/01/15 07:26:34;;;;;;;;;;;21.20;35.20;;;;;;5075225;28;20007;-62
2023/01/15 07:29:01;;;;;;;;;;;21.20;35.10;;;;;;5073705;28;19932;-62
2023/01/15 07:31:28;;;;;;;;;;;21.30;35.10;;;;;;5073966;28;19920;-62
2023/01/15 07:33:55;;;;;;;;;;;21.30;35.00;;;;;;5074016;28;19947;-63
2023/01/15 07:36:23;;;;;;;;;;;21.30;34.90;;;;;;5073870;28;20374;-62
2023/01/15 07:38:50;;;;;;;;;;;21.30;34.80;;;;;;5073770;28;19920;-62
2023/01/15 07:49:44;;;;;;;;;;;21.50;34.70;;;;;;5053898;28;19999;-62
2023/01/15 07:52:12;;;;;;;;;;;21.50;34.60;;;;;;5053854;28;19921;-62
2023/01/15 07:54:39;;;;;;;;;;;21.50;34.50;;;;;;5052774;28;19927;-62
2023/01/15 07:57:06;;;;;;;;;;;21.60;34.50;;;;;;5054145;28;20004;-62
2023/01/15 07:59:33;;;;;;;;;;;21.60;34.50;;;;;;5054032;28;19922;-62
2023/01/15 08:02:00;;;;;;;;;;;21.60;34.40;;;;;;5054193;28;19927;-62
2023/01/15 08:04:27;;;;;;;;;;;21.70;34.30;;;;;;5053524;28;19920;-62
2023/01/15 08:06:54;;;;;;;;;;;21.70;34.20;;;;;;5054089;28;19924;-62
2023/01/15 08:09:21;;;;;;;;;;;21.70;34.20;;;;;;5053682;28;19928;-62
2023/01/15 08:17:21;;;;;;;;;;;21.80;34.20;;;;;;5053867;28;19921;-62
2023/01/15 08:19:48;;;;;;;;;;;21.90;34.10;;;;;;5053396;28;19927;-62
2023/01/15 08:22:15;;;;;;;;;;;21.90;34.10;;;;;;5053389;28;20000;-62
2023/01/15 08:24:42;;;;;;;;;;;21.90;34.10;;;;;;5035981;28;19920;-62
2023/01/15 08:27:09;;;;;;;;;;;21.90;34.00;;;;;;5053696;28;19927;-63
2023/01/15 08:29:36;;;;;;;;;;;22.00;34.00;;;;;;5052872;28;19920;-62
2023/01/15 08:32:03;;;;;;;;;;;22.00;34.00;;;;;;5053336;28;19921;-63
2023/01/15 08:34:30;;;;;;;;;;;22.00;34.00;;;;;;5051976;28;20295;-62
2023/01/15 08:36:59;;;;;;;;;;;22.00;33.90;;;;;;5053910;28;19956;-62
2023/01/15 08:39:26;;;;;;;;;;;22.10;33.90;;;;;;5053348;28;19921;-62
2023/01/15 08:41:54;;;;;;;;;;;22.10;33.80;;;;;;5053530;28;19920;-62
2023/01/15 08:44:22;;;;;;;;;;;22.20;33.80;;;;;;5052691;28;19920;-62
2023/01/15 08:46:50;;;;;;;;;;;22.20;33.80;;;;;;5053388;28;19927;-62
2023/01/15 08:49:17;;;;;;;;;;;22.20;33.70;;;;;;5056870;28;19927;-62
2023/01/15 08:51:45;;;;;;;;;;;22.20;33.60;;;;;;5073746;28;19925;-62
2023/01/15 08:54:12;;;;;;;;;;;22.30;33.60;;;;;;5072446;28;19920;-63
2023/01/15 08:56:39;;;;;;;;;;;22.40;33.60;;;;;;5055747;28;19920;-62
2023/01/15 08:59:07;;;;;;;;;;;22.30;33.40;;;;;;5073752;28;19931;-62
2023/01/15 09:01:34;;;;;;;;;;;22.40;33.40;;;;;;5073024;28;19927;-62
2023/01/15 09:04:01;;;;;;;;;;;22.40;33.30;;;;;;5072677;28;19920;-62
2023/01/15 09:06:28;;;;;;;;;;;22.50;33.30;;;;;;5073000;28;20007;-62
2023/01/15 09:08:55;;;;;;;;;;;22.50;33.20;;;;;;5072823;28;19972;-62
2023/01/15 09:11:22;;;;;;;;;;;22.50;33.10;;;;;;5054724;28;19920;-62
2023/01/15 09:13:50;;;;;;;;;;;22.50;33.10;;;;;;5073163;28;19971;-62
2023/01/15 09:16:17;;;;;;;;;;;22.60;33.00;;;;;;5072670;28;19964;-63
2023/01/15 09:18:44;;;;;;;;;;;22.60;33.00;;;;;;5072363;28;19925;-62
2023/01/15 09:21:11;;;;;;;;;;;22.60;33.00;;;;;;5073075;28;19971;-63
2023/01/15 09:23:38;;;;;;;;;;;22.70;32.90;;;;;;5072719;28;20016;-62
2023/01/15 09:26:06;;;;;;;;;;;22.70;32.90;;;;;;5073813;28;19920;-62
2023/01/15 09:28:33;;;;;;;;;;;22.70;32.80;;;;;;5077095;28;20023;-62
2023/01/15 09:31:00;;;;;;;;;;;22.70;32.70;;;;;;5076611;28;20007;-62
2023/01/15 09:33:27;;;;;;;;;;;22.80;32.70;;;;;;5076572;28;19920;-63
2023/01/15 09:35:54;;;;;;;;;;;22.80;32.60;;;;;;5075633;28;19924;-62
2023/01/15 09:38:21;;;;;;;;;;;22.80;32.60;;;;;;5076330;28;19921;-62
2023/01/15 09:40:51;;;;;;;;;;;22.80;32.50;;;;;;5076157;28;20295;-62
2023/01/15 09:43:37;;;;;;;;;;;22.90;32.60;;;;;;5075997;28;19920;-62
2023/01/15 09:46:21;;;;;;;;;;;22.90;32.50;;;;;;5063606;28;19921;-63
2023/01/15 09:49:07;;;;;;;;;;;23.00;32.50;;;;;;5076798;28;19921;-62
2023/01/15 09:51:42;;;;;;;;;;;22.90;32.40;;;;;;5075671;28;19924;-62
2023/01/15 09:54:24;;;;;;;;;;;23.00;32.40;;;;;;5075793;28;19921;-62
2023/01/15 09:56:52;;;;;;;;;;;23.00;32.30;;;;;;5076556;28;20010;-62
2023/01/15 09:59:25;;;;;;;;;;;23.00;32.30;;;;;;5076185;28;20023;-62
2023/01/15 10:01:52;;;;;;;;;;;23.00;32.30;;;;;;5076139;28;19921;-62
2023/01/15 10:04:33;;;;;;;;;;;23.00;32.20;;;;;;5076463;28;19921;-63
2023/01/15 10:07:06;;;;;;;;;;;23.00;32.20;;;;;;5075836;28;19947;-62
2023/01/15 10:09:36;;;;;;;;;;;23.10;32.20;;;;;;5075221;28;20019;-62
2023/01/15 10:15:14;;;;;;;;;;;23.10;32.10;;;;;;5075336;28;20287;-62
2023/01/15 10:17:43;;;;;;;;;;;23.10;32.00;;;;;;5076194;28;20015;-62
2023/01/15 10:20:29;;;;;;;;;;;23.20;32.00;;;;;;5076220;28;19927;-63
2023/01/15 10:23:04;;;;;;;;;;;23.10;31.90;;;;;;5061231;28;20007;-63
2023/01/15 10:25:38;;;;;;;;;;;23.10;31.80;;;;;;5074948;28;20394;-63
2023/01/15 10:28:12;;;;;;;;;;;23.20;31.70;;;;;;5074116;28;19927;-63
2023/01/15 10:30:42;;;;;;;;;;;23.20;31.70;;;;;;5075461;28;20360;-63
2023/01/15 10:33:24;;;;;;;;;;;23.20;31.60;;;;;;5057473;28;19924;-63
2023/01/15 10:36:01;;;;;;;;;;;23.20;31.70;;;;;;5075224;28;19968;-64
2023/01/15 10:38:32;;;;;;;;;;;23.20;31.50;;;;;;5075384;28;19942;-63
2023/01/15 10:41:12;;;;;;;;;;;23.20;31.50;;;;;;5074511;28;19920;-63
2023/01/15 10:43:43;;;;;;;;;;;23.20;31.50;;;;;;5075773;28;20299;-63
2023/01/15 10:46:18;;;;;;;;;;;23.30;31.50;;;;;;5075562;28;19926;-63
2023/01/15 10:48:47;;;;;;;;;;;23.30;31.50;;;;;;5075828;28;20042;-63
2023/01/15 10:51:26;;;;;;;;;;;23.30;31.40;;;;;;5075122;28;19926;-63
2023/01/15 10:53:57;;;;;;;;;;;23.30;31.40;;;;;;5075529;28;19927;-63
2023/01/15 10:56:42;;;;;;;;;;;23.30;31.40;;;;;;5074409;28;19920;-63
2023/01/15 10:59:29;;;;;;;;;;;23.30;31.30;;;;;;5074507;28;19920;-63
2023/01/15 11:01:58;;;;;;;;;;;23.30;31.30;;;;;;5059883;28;19974;-63
2023/01/15 11:04:28;;;;;;;;;;;23.30;31.20;;;;;;5075714;28;19924;-63
2023/01/15 11:06:59;;;;;;;;;;;23.40;31.30;;;;;;5074658;28;20439;-63
2023/01/15 11:09:31;;;;;;;;;;;23.40;31.20;;;;;;5074652;28;20246;-63
2023/01/15 11:20:41;;;;;;;;;;;23.40;31.00;;;;;;5073960;28;20015;-63
2023/01/15 11:23:10;;;;;;;;;;;23.40;31.00;;;;;;5074314;28;19928;-63
2023/01/15 11:25:38;;;;;;;;;;;23.40;30.90;;;;;;5073715;28;20007;-63
2023/01/15 11:28:05;;;;;;;;;;;23.50;30.90;;;;;;5074462;28;19971;-63
2023/01/15 11:30:36;;;;;;;;;;;23.40;30.80;;;;;;5073799;28;20460;-63
2023/01/15 11:33:05;;;;;;;;;;;23.50;30.80;;;;;;5074030;28;19920;-63
2023/01/15 11:35:33;;;;;;;;;;;23.50;30.80;;;;;;5074339;28;19924;-63
2023/01/15 11:38:05;;;;;;;;;;;23.50;30.80;;;;;;5074554;28;19921;-63
2023/01/15 11:40:32;;;;;;;;;;;23.50;30.70;;;;;;5074212;28;20007;-63
2023/01/15 11:51:40;;;;;;;;;;;23.50;30.50;;;;;;5074171;28;19927;-63
2023/01/15 11:54:09;;;;;;;;;;;23.50;30.50;;;;;;5074025;28;19927;-63
2023/01/15 11:56:39;;;;;;;;;;;23.60;30.60;;;;;;5073529;28;19924;-65
2023/01/15 11:59:09;;;;;;;;;;;23.60;30.50;;;;;;5073933;28;19927;-63
2023/01/15 12:01:37;;;;;;;;;;;23.60;30.50;;;;;;5074103;28;19924;-63
2023/01/15 12:04:22;;;;;;;;;;;23.60;30.50;;;;;;5074055;28;19920;-63
2023/01/15 12:06:49;;;;;;;;;;;23.60;30.50;;;;;;5073397;28;20276;-63
2023/01/15 12:09:32;;;;;;;;;;;23.60;30.40;;;;;;5073913;28;19921;-63
2023/01/15 12:12:19;;;;;;;;;;;23.60;30.30;;;;;;5074153;28;19920;-63
2023/01/15 12:15:06;;;;;;;;;;;23.60;30.40;;;;;;5073390;28;19924;-63
2023/01/15 12:17:52;;;;;;;;;;;23.60;30.40;;;;;;5059505;28;19932;-63
2023/01/15 12:20:28;;;;;;;;;;;23.60;30.40;;;;;;5073575;28;19920;-63
2023/01/15 12:23:15;;;;;;;;;;;23.60;30.30;;;;;;5073186;28;19931;-63
2023/01/15 12:25:52;;;;;;;;;;;23.60;30.30;;;;;;5073681;28;19924;-64
2023/01/15 12:28:24;;;;;;;;;;;23.60;30.30;;;;;;5073717;28;19927;-63
2023/01/15 12:30:57;;;;;;;;;;;23.60;30.30;;;;;;5071438;28;20011;-63
2023/01/15 12:33:44;;;;;;;;;;;23.60;30.30;;;;;;5072809;28;20280;-62
2023/01/15 12:36:28;;;;;;;;;;;23.60;30.30;;;;;;5072493;28;19927;-62
2023/01/15 12:38:59;;;;;;;;;;;23.60;30.20;;;;;;5071939;28;19924;-62
2023/01/15 12:47:15;;;;;;;;;;;23.60;30.30;;;;;;5072956;28;19920;-62
2023/01/15 12:49:45;;;;;;;;;;;23.60;30.30;;;;;;5072957;28;19920;-62
2023/01/15 12:52:19;;;;;;;;;;;23.60;30.30;;;;;;5073130;28;20313;-62
2023/01/15 12:54:50;;;;;;;;;;;23.50;30.30;;;;;;5072932;28;19978;-63
2023/01/15 12:57:23;;;;;;;;;;;23.50;30.30;;;;;;5072948;28;19924;-61
2023/01/15 13:00:00;;;;;;;;;;;23.50;30.30;;;;;;5072347;28;19921;-62
2023/01/15 13:02:33;;;;;;;;;;;23.50;30.40;;;;;;5072935;28;20360;-60
2023/01/15 13:05:21;;;;;;;;;;;23.50;30.50;;;;;;5072612;28;20261;-62
2023/01/15 13:08:08;;;;;;;;;;;23.50;30.50;;;;;;5073447;28;19960;-64
2023/01/15 13:10:37;;;;;;;;;;;23.50;30.60;;;;;;5088154;28;20367;-62
2023/01/15 13:13:13;;;;;;;;;;;23.40;30.70;;;;;;5092403;28;19920;-62
2023/01/15 13:15:48;;;;;;;;;;;23.40;30.70;;;;;;5092839;28;20010;-63
2023/01/15 13:18:35;;;;;;;;;;;23.40;30.70;;;;;;5092628;28;19920;-62
2023/01/15 13:21:08;;;;;;;;;;;23.40;30.70;;;;;;5092838;28;19920;-63
2023/01/15 13:23:55;;;;;;;;;;;23.40;30.70;;;;;;5092470;28;20019;-62
2023/01/15 13:26:33;;;;;;;;;;;23.40;30.70;;;;;;5092912;28;19919;-63
2023/01/15 13:29:08;;;;;;;;;;;23.40;30.70;;;;;;5056841;28;19925;-62
2023/01/15 13:31:50;;;;;;;;;;;23.30;30.70;;;;;;5052418;28;19931;-63
2023/01/15 13:34:25;;;;;;;;;;;23.30;30.70;;;;;;5052872;28;19921;-63
2023/01/15 13:36:53;;;;;;;;;;;23.30;30.70;;;;;;5052872;28;20294;-64
2023/01/15 13:39:26;;;;;;;;;;;23.30;30.80;;;;;;5064898;28;20390;-62
2023/01/15 13:44:45;;;;;;;;;;;23.20;30.70;;;;;;5076976;28;19927;-62
2023/01/15 13:47:17;;;;;;;;;;;23.20;30.70;;;;;;5092667;28;19920;-63
2023/01/15 13:49:50;;;;;;;;;;;23.20;30.70;;;;;;5092855;28;20014;-63
2023/01/15 13:52:30;;;;;;;;;;;23.20;30.80;;;;;;5092713;28;19997;-62
2023/01/15 13:54:59;;;;;;;;;;;23.20;30.80;;;;;;5092241;28;19924;-62
2023/01/15 13:57:35;;;;;;;;;;;23.10;30.80;;;;;;5092611;28;19924;-63
2023/01/15 14:00:03;;;;;;;;;;;23.10;30.80;;;;;;5092412;28;19926;-63
2023/01/15 14:02:33;;;;;;;;;;;23.10;30.90;;;;;;5072208;28;19926;-63
2023/01/15 14:05:20;;;;;;;;;;;23.10;30.90;;;;;;5072250;28;19921;-63
2023/01/15 14:07:47;;;;;;;;;;;23.00;30.90;;;;;;5072133;28;19995;-62
2023/01/15 14:10:23;;;;;;;;;;;23.10;31.00;;;;;;5072252;28;19931;-63
2023/01/15 14:13:10;;;;;;;;;;;23.00;31.00;;;;;;5063576;28;20331;-62
2023/01/15 14:15:56;;;;;;;;;;;23.00;31.10;;;;;;5055172;28;20440;-62
2023/01/15 14:18:43;;;;;;;;;;;23.00;31.10;;;;;;5055875;28;20288;-62
2023/01/15 14:21:23;;;;;;;;;;;22.90;31.10;;;;;;5041107;28;19921;-63
2023/01/15 14:24:00;;;;;;;;;;;22.90;31.10;;;;;;5074531;28;19921;-62
2023/01/15 14:26:46;;;;;;;;;;;22.90;31.10;;;;;;5075455;28;19920;-63
2023/01/15 14:29:32;;;;;;;;;;;22.90;31.20;;;;;;5075373;28;19926;-63
2023/01/15 14:32:06;;;;;;;;;;;22.90;31.20;;;;;;5075912;28;19956;-62
2023/01/15 14:34:34;;;;;;;;;;;22.80;31.20;;;;;;5053638;28;19921;-63
2023/01/15 14:37:06;;;;;;;;;;;22.80;31.30;;;;;;5055671;28;19931;-63
2023/01/15 14:39:40;;;;;;;;;;;22.80;31.30;;;;;;5055307;28;20011;-62
2023/01/15 14:45:06;;;;;;;;;;;22.80;31.40;;;;;;5075681;28;19934;-63
2023/01/15 14:47:35;;;;;;;;;;;22.70;31.30;;;;;;5056830;28;19920;-63
2023/01/15 14:50:21;;;;;;;;;;;22.70;31.40;;;;;;5074006;28;20295;-63
2023/01/15 14:52:48;;;;;;;;;;;22.70;31.40;;;;;;5074612;28;20451;-63
2023/01/15 14:55:16;;;;;;;;;;;22.70;31.40;;;;;;5074579;28;19927;-63
2023/01/15 14:57:54;;;;;;;;;;;22.70;31.50;;;;;;5075268;28;19963;-63
2023/01/15 15:00:23;;;;;;;;;;;22.60;31.50;;;;;;5075209;28;19920;-62
2023/01/15 15:02:50;;;;;;;;;;;22.60;31.50;;;;;;5075737;28;19927;-62
2023/01/15 15:05:19;;;;;;;;;;;22.60;31.60;;;;;;5074467;28;19920;-62
2023/01/15 15:07:51;;;;;;;;;;;22.50;31.60;;;;;;5056934;28;20272;-62
2023/01/15 15:10:24;;;;;;;;;;;22.50;31.70;;;;;;5075096;28;19982;-63
2023/01/15 15:13:04;;;;;;;;;;;22.60;31.90;;;;;;5074593;28;19920;-62
2023/01/15 15:15:37;;;;;;;;;;;22.60;31.90;;;;;;5074808;28;20399;-63
2023/01/15 15:18:14;;;;;;;;;;;22.50;32.00;;;;;;5074391;28;20372;-63
2023/01/15 15:20:46;;;;;;;;;;;22.50;32.10;;;;;;5074793;28;19926;-63
2023/01/15 15:23:33;;;;;;;;;;;22.50;32.20;;;;;;5074306;28;19924;-63
2023/01/15 15:26:01;;;;;;;;;;;22.40;32.20;;;;;;5075002;28;19920;-63
2023/01/15 15:28:29;;;;;;;;;;;22.40;32.30;;;;;;5056803;28;19928;-63
2023/01/15 15:31:00;;;;;;;;;;;22.40;32.40;;;;;;5073835;28;20097;-63
2023/01/15 15:33:35;;;;;;;;;;;22.30;32.50;;;;;;5074520;28;19920;-63
2023/01/15 15:36:02;;;;;;;;;;;22.30;32.60;;;;;;5074611;28;19927;-63
2023/01/15 15:38:29;;;;;;;;;;;22.30;32.70;;;;;;5074919;28;19978;-63